createdAt,value
2018-10-19T00:00:53.907Z,9.55
2018-10-19T00:01:53.827Z,9.53
2018-10-19T00:02:53.811Z,9.49
2018-10-19T00:03:53.764Z,9.42
2018-10-19T00:04:53.755Z,9.49
2018-10-19T00:05:53.711Z,9.45
2018-10-19T00:06:53.686Z,9.44
2018-10-19T00:07:53.649Z,9.48
2018-10-19T00:08:53.625Z,9.41
2018-10-19T00:09:53.591Z,9.48
2018-10-19T00:10:53.608Z,9.41
2018-10-19T00:11:53.530Z,9.42
2018-10-19T00:12:53.556Z,9.35
2018-10-19T00:13:53.476Z,9.41
2018-10-19T00:14:53.453Z,9.35
2018-10-19T00:15:53.417Z,9.38
2018-10-19T00:16:53.409Z,9.42
2018-10-19T00:17:53.357Z,9.38
2018-10-19T00:18:53.329Z,9.41
2018-10-19T00:19:53.302Z,9.37
2018-10-19T00:20:53.272Z,9.42
2018-10-19T00:21:53.243Z,9.44
2018-10-19T00:22:53.263Z,9.37
2018-10-19T00:23:53.185Z,9.42
2018-10-19T00:24:53.167Z,9.38
2018-10-19T00:25:53.127Z,9.30
2018-10-19T00:26:53.098Z,9.30
2018-10-19T00:27:53.073Z,9.30
2018-10-19T00:28:53.091Z,9.24
2018-10-19T00:29:53.014Z,9.16
2018-10-19T00:30:52.978Z,9.20
2018-10-19T00:31:52.952Z,9.23
2018-10-19T00:32:52.919Z,9.16
2018-10-19T00:33:52.896Z,9.16
2018-10-19T00:34:52.867Z,9.22
2018-10-19T00:35:53.036Z,9.15
2018-10-19T00:36:52.885Z,9.13
2018-10-19T00:37:52.778Z,9.17
2018-10-19T00:38:52.752Z,9.13
2018-10-19T00:39:52.917Z,9.10
2018-10-19T00:40:52.893Z,9.12
2018-10-19T00:41:52.660Z,9.12
2018-10-19T00:42:52.628Z,9.04
2018-10-19T00:43:52.598Z,9.01
2018-10-19T00:44:52.573Z,9.01
2018-10-19T00:45:52.542Z,9.01
2018-10-19T00:46:52.526Z,8.97
2018-10-19T00:47:52.485Z,8.97
2018-10-19T00:48:52.656Z,8.89
2018-10-19T00:49:52.625Z,8.91
2018-10-19T00:50:52.407Z,8.91
2018-10-19T00:51:52.364Z,8.98
2018-10-19T00:52:52.382Z,8.86
2018-10-19T00:53:52.311Z,8.85
2018-10-19T00:54:52.480Z,8.79
2018-10-19T00:55:52.269Z,8.96
2018-10-19T00:56:52.219Z,8.78
2018-10-19T00:57:52.191Z,8.75
2018-10-19T00:58:52.394Z,8.83
2018-10-19T00:59:52.131Z,8.80
2018-10-19T01:00:52.102Z,8.78
2018-10-19T01:01:52.677Z,8.76
2018-10-19T01:02:52.099Z,8.98
2018-10-19T01:03:52.011Z,8.89
2018-10-19T01:04:52.002Z,8.93
2018-10-19T01:05:51.955Z,8.97
2018-10-19T01:06:51.925Z,8.82
2018-10-19T01:07:51.895Z,8.78
2018-10-19T01:08:51.870Z,8.78
2018-10-19T01:09:51.835Z,8.78
2018-10-19T01:10:51.828Z,8.86
2018-10-19T01:11:51.777Z,9.00
2018-10-19T01:12:51.746Z,8.89
2018-10-19T01:13:51.717Z,8.97
2018-10-19T01:14:51.688Z,8.89
2018-10-19T01:15:51.656Z,8.89
2018-10-19T01:16:51.629Z,8.88
2018-10-19T01:17:51.600Z,8.93
2018-10-19T01:18:51.573Z,8.86
2018-10-19T01:19:51.543Z,8.82
2018-10-19T01:20:51.512Z,8.88
2018-10-19T01:21:51.482Z,8.82
2018-10-19T01:22:51.451Z,8.78
2018-10-19T01:23:51.422Z,8.79
2018-10-19T01:24:51.393Z,8.88
2018-10-19T01:25:51.365Z,8.83
2018-10-19T01:26:51.337Z,8.83
2018-10-19T01:27:51.316Z,8.75
2018-10-19T01:28:51.277Z,8.68
2018-10-19T01:29:51.249Z,8.64
2018-10-19T01:30:51.218Z,8.75
2018-10-19T01:31:51.189Z,8.75
2018-10-19T01:32:51.160Z,8.64
2018-10-19T01:33:51.134Z,8.63
2018-10-19T01:34:51.099Z,8.57
2018-10-19T01:35:51.073Z,8.63
2018-10-19T01:36:51.040Z,8.57
2018-10-19T01:37:51.013Z,8.64
2018-10-19T01:38:50.986Z,8.60
2018-10-19T01:39:50.953Z,8.67
2018-10-19T01:40:50.927Z,8.76
2018-10-19T01:41:50.896Z,8.63
2018-10-19T01:42:50.863Z,8.60
2018-10-19T01:43:50.834Z,8.70
2018-10-19T01:44:50.807Z,8.63
2018-10-19T01:45:50.776Z,8.63
2018-10-19T01:46:50.745Z,8.58
2018-10-19T01:47:50.716Z,8.73
2018-10-19T01:48:50.687Z,8.57
2018-10-19T01:49:50.660Z,8.68
2018-10-19T01:50:50.839Z,8.63
2018-10-19T01:51:50.804Z,8.70
2018-10-19T01:52:50.569Z,8.57
2018-10-19T01:53:50.538Z,8.60
2018-10-19T01:54:50.515Z,8.61
2018-10-19T01:55:50.478Z,8.63
2018-10-19T01:56:50.449Z,8.63
2018-10-19T01:57:50.422Z,8.55
2018-10-19T01:58:50.393Z,8.58
2018-10-19T01:59:50.362Z,8.49
2018-10-19T02:00:50.333Z,8.50
2018-10-19T02:01:50.303Z,8.54
2018-10-19T02:02:50.273Z,8.52
2018-10-19T02:03:50.244Z,8.49
2018-10-19T02:04:50.216Z,8.45
2018-10-19T02:05:50.183Z,8.49
2018-10-19T02:06:50.153Z,8.47
2018-10-19T02:07:50.124Z,8.47
2018-10-19T02:08:50.143Z,8.47
2018-10-19T02:09:50.067Z,8.52
2018-10-19T02:10:50.039Z,8.50
2018-10-19T02:11:50.005Z,8.54
2018-10-19T02:12:49.982Z,8.46
2018-10-19T02:13:49.947Z,8.40
2018-10-19T02:14:49.917Z,8.50
2018-10-19T02:15:49.886Z,8.43
2018-10-19T02:16:49.859Z,8.34
2018-10-19T02:17:49.835Z,8.45
2018-10-19T02:18:49.801Z,8.37
2018-10-19T02:19:50.872Z,8.37
2018-10-19T02:20:49.740Z,8.34
2018-10-19T02:21:49.711Z,8.39
2018-10-19T02:22:49.679Z,8.29
2018-10-19T02:23:49.648Z,8.24
2018-10-19T02:24:49.619Z,8.39
2018-10-19T02:25:49.592Z,8.28
2018-10-19T02:26:49.563Z,8.28
2018-10-19T02:27:49.532Z,8.27
2018-10-19T02:28:49.508Z,8.31
2018-10-19T02:29:49.472Z,8.29
2018-10-19T02:30:49.443Z,8.22
2018-10-19T02:31:49.410Z,8.29
2018-10-19T02:32:49.386Z,8.18
2018-10-19T02:33:49.367Z,8.21
2018-10-19T02:34:49.329Z,8.17
2018-10-19T02:35:49.293Z,8.13
2018-10-19T02:36:49.266Z,8.13
2018-10-19T02:37:49.489Z,8.22
2018-10-19T02:38:49.206Z,8.22
2018-10-19T02:39:49.177Z,8.09
2018-10-19T02:40:49.149Z,8.12
2018-10-19T02:41:49.115Z,8.20
2018-10-19T02:42:49.089Z,8.17
2018-10-19T02:43:49.055Z,8.17
2018-10-19T02:44:49.027Z,8.13
2018-10-19T02:45:48.998Z,8.13
2018-10-19T02:46:49.171Z,8.28
2018-10-19T02:47:48.965Z,8.28
2018-10-19T02:48:48.909Z,8.25
2018-10-19T02:49:49.081Z,8.17
2018-10-19T02:50:48.852Z,8.17
2018-10-19T02:51:48.820Z,8.13
2018-10-19T02:52:48.790Z,8.09
2018-10-19T02:53:48.960Z,8.18
2018-10-19T02:54:48.728Z,8.21
2018-10-19T02:55:48.903Z,8.14
2018-10-19T02:56:48.669Z,8.20
2018-10-19T02:57:48.640Z,8.21
2018-10-19T02:58:48.824Z,8.20
2018-10-19T02:59:48.581Z,8.14
2018-10-19T03:00:48.552Z,8.04
2018-10-19T03:01:48.523Z,8.04
2018-10-19T03:02:48.490Z,8.06
2018-10-19T03:03:48.460Z,7.92
2018-10-19T03:04:48.430Z,8.00
2018-10-19T03:05:48.400Z,7.96
2018-10-19T03:06:48.573Z,8.04
2018-10-19T03:07:48.345Z,7.96
2018-10-19T03:08:48.310Z,7.76
2018-10-19T03:09:48.290Z,7.91
2018-10-19T03:10:48.255Z,7.82
2018-10-19T03:11:48.225Z,7.92
2018-10-19T03:12:48.244Z,7.82
2018-10-19T03:13:48.162Z,7.77
2018-10-19T03:14:48.135Z,7.84
2018-10-19T03:15:48.101Z,7.77
2018-10-19T03:16:48.072Z,7.79
2018-10-19T03:17:48.045Z,7.91
2018-10-19T03:18:48.015Z,7.86
2018-10-19T03:19:47.983Z,7.85
2018-10-19T03:20:47.954Z,7.85
2018-10-19T03:21:47.924Z,7.95
2018-10-19T03:22:47.895Z,7.95
2018-10-19T03:23:47.863Z,7.94
2018-10-19T03:24:47.834Z,7.81
2018-10-19T03:25:47.808Z,7.89
2018-10-19T03:26:47.772Z,7.82
2018-10-19T03:27:47.742Z,7.74
2018-10-19T03:28:47.726Z,7.76
2018-10-19T03:29:47.684Z,7.76
2018-10-19T03:30:47.675Z,7.73
2018-10-19T03:31:47.624Z,7.62
2018-10-19T03:32:47.594Z,7.74
2018-10-19T03:33:47.562Z,7.73
2018-10-19T03:34:47.532Z,7.58
2018-10-19T03:35:47.503Z,7.69
2018-10-19T03:36:47.474Z,7.67
2018-10-19T03:37:47.645Z,7.73
2018-10-19T03:38:47.616Z,7.69
2018-10-19T03:39:47.398Z,7.73
2018-10-19T03:40:47.354Z,7.77
2018-10-19T03:41:47.323Z,7.66
2018-10-19T03:42:47.294Z,7.66
2018-10-19T03:43:47.263Z,7.54
2018-10-19T03:44:47.232Z,7.58
2018-10-19T03:45:47.403Z,7.66
2018-10-19T03:46:47.173Z,7.66
2018-10-19T03:47:47.141Z,7.67
2018-10-19T03:48:47.362Z,7.67
2018-10-19T03:49:47.082Z,7.62
2018-10-19T03:50:47.066Z,7.66
2018-10-19T03:51:47.022Z,7.58
2018-10-19T03:52:46.996Z,7.63
2018-10-19T03:53:46.963Z,7.67
2018-10-19T03:54:46.933Z,7.62
2018-10-19T03:55:47.104Z,7.67
2018-10-19T03:56:46.877Z,7.60
2018-10-19T03:57:46.847Z,7.67
2018-10-19T03:58:46.844Z,7.73
2018-10-19T03:59:46.779Z,7.70
2018-10-19T04:00:46.752Z,7.67
2018-10-19T04:01:46.722Z,7.63
2018-10-19T04:02:46.695Z,7.63
2018-10-19T04:03:46.705Z,7.74
2018-10-19T04:04:46.634Z,7.74
2018-10-19T04:05:46.600Z,7.62
2018-10-19T04:06:46.571Z,7.70
2018-10-19T04:07:46.540Z,7.66
2018-10-19T04:08:46.512Z,7.66
2018-10-19T04:09:46.481Z,7.62
2018-10-19T04:10:46.454Z,7.58
2018-10-19T04:11:46.420Z,7.86
2018-10-19T04:12:46.394Z,7.76
2018-10-19T04:13:46.365Z,7.81
2018-10-19T04:14:46.333Z,7.77
2018-10-19T04:15:46.505Z,7.70
2018-10-19T04:16:46.272Z,7.77
2018-10-19T04:17:46.246Z,7.71
2018-10-19T04:18:46.211Z,7.79
2018-10-19T04:19:46.180Z,7.79
2018-10-19T04:20:46.151Z,7.77
2018-10-19T04:21:46.124Z,7.94
2018-10-19T04:22:46.296Z,7.92
2018-10-19T04:23:46.064Z,7.92
2018-10-19T04:24:46.034Z,8.07
2018-10-19T04:25:46.005Z,8.07
2018-10-19T04:26:45.973Z,8.02
2018-10-19T04:27:46.191Z,8.04
2018-10-19T04:28:45.915Z,8.06
2018-10-19T04:29:45.887Z,8.06
2018-10-19T04:30:45.861Z,7.94
2018-10-19T04:31:45.826Z,8.07
2018-10-19T04:32:45.798Z,8.12
2018-10-19T04:33:45.770Z,8.21
2018-10-19T04:34:45.742Z,8.13
2018-10-19T04:35:45.706Z,8.25
2018-10-19T04:36:45.679Z,8.17
2018-10-19T04:37:45.654Z,8.13
2018-10-19T04:38:45.619Z,8.10
2018-10-19T04:39:45.592Z,8.06
2018-10-19T04:40:45.566Z,8.04
2018-10-19T04:41:45.686Z,8.14
2018-10-19T04:42:45.502Z,8.09
2018-10-19T04:43:45.477Z,8.18
2018-10-19T04:44:45.441Z,8.14
2018-10-19T04:45:45.412Z,8.24
2018-10-19T04:46:45.388Z,8.17
2018-10-19T04:47:45.428Z,8.22
2018-10-19T04:48:45.324Z,8.24
2018-10-19T04:49:45.298Z,8.25
2018-10-19T04:50:45.269Z,8.28
2018-10-19T04:51:45.242Z,8.34
2018-10-19T04:52:45.211Z,8.24
2018-10-19T04:53:45.265Z,8.29
2018-10-19T04:54:45.151Z,8.29
2018-10-19T04:55:45.117Z,8.36
2018-10-19T04:56:45.092Z,8.36
2018-10-19T04:57:45.059Z,8.28
2018-10-19T04:58:45.030Z,8.27
2018-10-19T04:59:45.009Z,8.31
2018-10-19T05:00:44.973Z,8.29
2018-10-19T05:01:44.944Z,8.17
2018-10-19T05:02:45.062Z,8.21
2018-10-19T05:03:44.885Z,8.22
2018-10-19T05:04:44.965Z,8.13
2018-10-19T05:05:44.863Z,8.27
2018-10-19T05:06:44.867Z,8.29
2018-10-19T05:07:44.770Z,8.28
2018-10-19T05:08:44.766Z,8.27
2018-10-19T05:09:44.709Z,8.29
2018-10-19T05:10:44.680Z,8.25
2018-10-19T05:11:44.649Z,8.34
2018-10-19T05:12:44.641Z,8.28
2018-10-19T05:13:44.592Z,8.32
2018-10-19T05:14:44.563Z,8.24
2018-10-19T05:15:44.535Z,8.31
2018-10-19T05:16:44.504Z,8.29
2018-10-19T05:17:44.474Z,8.36
2018-10-19T05:18:44.444Z,8.39
2018-10-19T05:19:44.414Z,8.28
2018-10-19T05:20:44.385Z,8.37
2018-10-19T05:21:44.357Z,8.28
2018-10-19T05:22:44.328Z,8.36
2018-10-19T05:23:44.301Z,8.43
2018-10-19T05:24:44.392Z,8.36
2018-10-19T05:25:44.238Z,8.50
2018-10-19T05:26:44.208Z,8.50
2018-10-19T05:27:44.178Z,8.50
2018-10-19T05:28:44.150Z,8.49
2018-10-19T05:29:44.129Z,8.50
2018-10-19T05:30:44.097Z,8.54
2018-10-19T05:31:44.076Z,8.49
2018-10-19T05:32:44.098Z,8.55
2018-10-19T05:33:44.003Z,8.57
2018-10-19T05:34:43.974Z,8.70
2018-10-19T05:35:43.948Z,8.61
2018-10-19T05:36:43.916Z,8.61
2018-10-19T05:37:43.888Z,8.60
2018-10-19T05:38:43.909Z,8.58
2018-10-19T05:39:43.830Z,8.47
2018-10-19T05:40:43.801Z,8.50
2018-10-19T05:41:43.770Z,8.63
2018-10-19T05:42:43.739Z,8.61
2018-10-19T05:43:43.825Z,8.67
2018-10-19T05:44:43.680Z,8.61
2018-10-19T05:45:43.651Z,8.68
2018-10-19T05:46:43.622Z,8.63
2018-10-19T05:47:43.591Z,8.68
2018-10-19T05:48:43.573Z,8.65
2018-10-19T05:49:43.739Z,8.68
2018-10-19T05:50:43.507Z,8.65
2018-10-19T05:51:43.477Z,8.60
2018-10-19T05:52:43.450Z,8.65
2018-10-19T05:53:43.418Z,8.65
2018-10-19T05:54:43.389Z,8.65
2018-10-19T05:55:43.359Z,8.64
2018-10-19T05:56:43.329Z,8.65
2018-10-19T05:57:43.303Z,8.65
2018-10-19T05:58:43.273Z,8.63
2018-10-19T05:59:43.261Z,8.64
2018-10-19T06:00:43.213Z,8.68
2018-10-19T06:01:43.186Z,8.67
2018-10-19T06:02:43.214Z,8.70
2018-10-19T06:03:43.125Z,8.60
2018-10-19T06:04:43.099Z,8.64
2018-10-19T06:05:43.066Z,8.58
2018-10-19T06:06:43.037Z,8.63
2018-10-19T06:07:43.010Z,8.55
2018-10-19T06:08:42.980Z,8.64
2018-10-19T06:09:42.952Z,8.47
2018-10-19T06:10:42.923Z,8.57
2018-10-19T06:11:42.892Z,8.55
2018-10-19T06:12:42.864Z,8.55
2018-10-19T06:13:42.930Z,8.63
2018-10-19T06:14:42.805Z,8.60
2018-10-19T06:15:42.779Z,8.57
2018-10-19T06:16:42.745Z,8.55
2018-10-19T06:17:42.717Z,8.57
2018-10-19T06:18:42.692Z,8.57
2018-10-19T06:19:42.657Z,8.60
2018-10-19T06:20:42.629Z,8.64
2018-10-19T06:21:42.602Z,8.60
2018-10-19T06:22:42.576Z,8.52
2018-10-19T06:23:42.543Z,8.47
2018-10-19T06:24:42.515Z,8.49
2018-10-19T06:25:42.516Z,8.61
2018-10-19T06:26:42.455Z,8.57
2018-10-19T06:27:42.427Z,8.63
2018-10-19T06:28:42.599Z,8.63
2018-10-19T06:29:42.371Z,8.61
2018-10-19T06:30:42.345Z,8.60
2018-10-19T06:31:42.315Z,8.61
2018-10-19T06:32:42.284Z,8.61
2018-10-19T06:33:42.312Z,8.61
2018-10-19T06:34:42.224Z,8.65
2018-10-19T06:35:42.201Z,8.76
2018-10-19T06:36:42.165Z,8.78
2018-10-19T06:37:42.139Z,8.79
2018-10-19T06:38:42.113Z,8.82
2018-10-19T06:39:42.082Z,8.76
2018-10-19T06:40:42.093Z,8.85
2018-10-19T06:41:42.223Z,8.80
2018-10-19T06:42:41.996Z,8.79
2018-10-19T06:43:41.963Z,8.93
2018-10-19T06:44:41.934Z,8.82
2018-10-19T06:45:41.907Z,8.86
2018-10-19T06:46:41.935Z,8.78
2018-10-19T06:47:41.852Z,8.88
2018-10-19T06:48:41.827Z,8.89
2018-10-19T06:49:41.793Z,8.79
2018-10-19T06:50:41.764Z,8.85
2018-10-19T06:51:41.735Z,8.86
2018-10-19T06:52:41.705Z,8.86
2018-10-19T06:53:41.675Z,9.00
2018-10-19T06:54:41.645Z,8.91
2018-10-19T06:55:41.619Z,8.96
2018-10-19T06:56:41.596Z,8.96
2018-10-19T06:57:41.590Z,9.00
2018-10-19T06:58:41.534Z,8.96
2018-10-19T06:59:41.507Z,9.06
2018-10-19T07:00:41.475Z,9.01
2018-10-19T07:01:41.445Z,9.01
2018-10-19T07:02:41.418Z,9.00
2018-10-19T07:03:41.389Z,9.12
2018-10-19T07:04:41.360Z,9.13
2018-10-19T07:05:41.422Z,9.15
2018-10-19T07:06:41.302Z,9.00
2018-10-19T07:07:41.272Z,9.13
2018-10-19T07:08:41.246Z,9.00
2018-10-19T07:09:41.219Z,9.16
2018-10-19T07:10:41.194Z,9.12
2018-10-19T07:11:41.161Z,9.12
2018-10-19T07:12:41.134Z,9.08
2018-10-19T07:13:41.101Z,9.13
2018-10-19T07:14:41.077Z,9.17
2018-10-19T07:15:41.049Z,9.19
2018-10-19T07:16:41.028Z,9.30
2018-10-19T07:17:40.998Z,9.37
2018-10-19T07:18:40.961Z,9.44
2018-10-19T07:19:41.135Z,9.45
2018-10-19T07:20:40.904Z,9.42
2018-10-19T07:21:40.937Z,9.35
2018-10-19T07:22:40.847Z,9.38
2018-10-19T07:23:41.019Z,9.52
2018-10-19T07:24:40.998Z,9.56
2018-10-19T07:25:40.758Z,9.71
2018-10-19T07:26:40.730Z,9.70
2018-10-19T07:27:40.904Z,9.77
2018-10-19T07:28:40.698Z,10.04
2018-10-19T07:29:40.801Z,10.06
2018-10-19T07:30:40.635Z,9.86
2018-10-19T07:31:40.794Z,9.92
2018-10-19T07:32:40.767Z,10.04
2018-10-19T07:33:40.737Z,9.88
2018-10-19T07:34:40.505Z,9.89
2018-10-19T07:35:40.479Z,9.92
2018-10-19T07:36:40.650Z,10.01
2018-10-19T07:37:40.622Z,10.01
2018-10-19T07:38:40.594Z,10.11
2018-10-19T07:39:40.371Z,10.13
2018-10-19T07:40:40.541Z,10.09
2018-10-19T07:41:40.516Z,10.01
2018-10-19T07:42:40.286Z,10.07
2018-10-19T07:43:40.254Z,10.26
2018-10-19T07:44:40.428Z,10.25
2018-10-19T07:45:40.405Z,10.28
2018-10-19T07:46:40.372Z,10.26
2018-10-19T07:47:40.164Z,10.24
2018-10-19T07:48:40.120Z,10.17
2018-10-19T07:49:40.088Z,10.26
2018-10-19T07:50:40.269Z,10.28
2018-10-19T07:51:40.032Z,10.42
2018-10-19T07:52:41.016Z,10.46
2018-10-19T07:53:39.977Z,10.38
2018-10-19T07:54:39.951Z,10.34
2018-10-19T07:55:39.920Z,10.25
2018-10-19T07:56:39.895Z,10.31
2018-10-19T07:57:39.864Z,10.38
2018-10-19T07:58:39.842Z,10.39
2018-10-19T07:59:40.012Z,10.44
2018-10-19T08:00:39.785Z,10.54
2018-10-19T08:01:39.757Z,10.54
2018-10-19T08:02:39.729Z,10.51
2018-10-19T08:03:39.704Z,10.58
2018-10-19T08:04:39.674Z,10.70
2018-10-19T08:05:39.848Z,10.78
2018-10-19T08:06:39.624Z,10.55
2018-10-19T08:07:39.792Z,10.55
2018-10-19T08:08:39.564Z,10.51
2018-10-19T08:09:39.739Z,10.72
2018-10-19T08:10:39.511Z,11.56
2018-10-19T08:11:39.755Z,12.18
2018-10-19T08:12:39.455Z,12.07
2018-10-19T08:13:39.633Z,11.64
2018-10-19T08:14:39.436Z,11.24
2018-10-19T08:15:39.578Z,11.23
2018-10-19T08:16:39.349Z,11.42
2018-10-19T08:17:39.322Z,11.46
2018-10-19T08:18:39.300Z,11.35
2018-10-19T08:19:39.267Z,11.08
2018-10-19T08:20:39.246Z,10.80
2018-10-19T08:21:39.217Z,10.99
2018-10-19T08:22:39.192Z,10.99
2018-10-19T08:23:39.168Z,10.90
2018-10-19T08:24:39.138Z,11.06
2018-10-19T08:25:39.119Z,11.09
2018-10-19T08:26:39.087Z,11.24
2018-10-19T08:27:39.060Z,11.33
2018-10-19T08:28:39.043Z,11.28
2018-10-19T08:29:39.003Z,11.27
2018-10-19T08:30:38.978Z,11.19
2018-10-19T08:31:38.951Z,11.60
2018-10-19T08:32:38.925Z,12.01
2018-10-19T08:33:38.902Z,12.00
2018-10-19T08:34:38.879Z,12.04
2018-10-19T08:35:38.847Z,11.79
2018-10-19T08:36:38.823Z,11.62
2018-10-19T08:37:38.828Z,11.69
2018-10-19T08:38:38.772Z,12.11
2018-10-19T08:39:38.747Z,12.43
2018-10-19T08:40:38.919Z,12.46
2018-10-19T08:41:38.904Z,12.43
2018-10-19T08:42:38.870Z,13.09
2018-10-19T08:43:38.642Z,13.46
2018-10-19T08:44:38.820Z,13.47
2018-10-19T08:45:38.590Z,12.91
2018-10-19T08:46:38.765Z,12.44
2018-10-19T08:47:39.834Z,12.34
2018-10-19T08:48:38.513Z,12.15
2018-10-19T08:49:38.488Z,12.23
2018-10-19T08:50:38.464Z,12.16
2018-10-19T08:51:39.248Z,12.34
2018-10-19T08:52:38.413Z,12.55
2018-10-19T08:53:38.637Z,12.58
2018-10-19T08:54:38.374Z,12.74
2018-10-19T08:55:38.387Z,12.70
2018-10-19T08:56:38.314Z,12.92
2018-10-19T08:57:38.547Z,13.07
2018-10-19T08:58:38.465Z,13.38
2018-10-19T08:59:38.440Z,13.54
2018-10-19T09:00:38.415Z,13.84
2018-10-19T09:01:38.191Z,13.93
2018-10-19T09:02:38.375Z,14.83
2018-10-19T09:03:38.386Z,15.88
2018-10-19T09:04:38.118Z,15.80
2018-10-19T09:05:38.297Z,15.34
2018-10-19T09:06:38.270Z,14.95
2018-10-19T09:07:38.093Z,14.86
2018-10-19T09:08:38.020Z,14.36
2018-10-19T09:09:37.999Z,14.57
2018-10-19T09:10:37.978Z,14.20
2018-10-19T09:11:37.980Z,13.84
2018-10-19T09:12:38.308Z,13.80
2018-10-19T09:13:37.906Z,13.73
2018-10-19T09:14:37.893Z,14.21
2018-10-19T09:15:38.062Z,14.94
2018-10-19T09:16:38.037Z,15.86
2018-10-19T09:17:37.811Z,16.60
2018-10-19T09:18:37.843Z,15.30
2018-10-19T09:19:37.765Z,14.90
2018-10-19T09:20:37.743Z,15.20
2018-10-19T09:21:37.724Z,15.23
2018-10-19T09:22:37.709Z,14.85
2018-10-19T09:23:37.678Z,14.98
2018-10-19T09:24:37.655Z,14.09
2018-10-19T09:25:37.630Z,14.05
2018-10-19T09:26:37.608Z,14.54
2018-10-19T09:27:37.598Z,15.51
2018-10-19T09:28:37.765Z,16.07
2018-10-19T09:29:37.807Z,16.75
2018-10-19T09:30:37.518Z,16.47
2018-10-19T09:31:37.496Z,16.14
2018-10-19T09:32:37.676Z,15.62
2018-10-19T09:33:37.454Z,15.16
2018-10-19T09:34:37.432Z,15.01
2018-10-19T09:35:37.702Z,15.25
2018-10-19T09:36:37.694Z,15.23
2018-10-19T09:37:37.567Z,14.83
2018-10-19T09:38:37.548Z,14.45
2018-10-19T09:39:37.522Z,14.09
2018-10-19T09:40:37.501Z,14.02
2018-10-19T09:41:37.485Z,13.94
2018-10-19T09:42:37.458Z,13.63
2018-10-19T09:43:37.434Z,14.34
2018-10-19T09:44:37.431Z,15.27
2018-10-19T09:45:37.392Z,15.56
2018-10-19T09:46:37.370Z,15.40
2018-10-19T09:47:37.445Z,16.08
2018-10-19T09:48:37.119Z,16.55
2018-10-19T09:49:37.298Z,16.67
2018-10-19T09:50:37.073Z,15.53
2018-10-19T09:51:37.054Z,14.53
2018-10-19T09:52:37.029Z,14.90
2018-10-19T09:53:37.011Z,14.85
2018-10-19T09:54:36.992Z,15.03
2018-10-19T09:55:36.964Z,15.22
2018-10-19T09:56:37.954Z,15.58
2018-10-19T09:57:37.120Z,15.96
2018-10-19T09:58:39.720Z,16.17
2018-10-19T09:59:37.074Z,16.60
2018-10-19T10:00:37.053Z,16.54
2018-10-19T10:01:37.041Z,15.98
2018-10-19T10:02:37.012Z,15.77
2018-10-19T10:03:36.792Z,15.96
2018-10-19T10:04:36.766Z,16.10
2018-10-19T10:05:36.750Z,16.36
2018-10-19T10:06:36.723Z,16.52
2018-10-19T10:07:36.898Z,16.87
2018-10-19T10:08:36.684Z,16.45
2018-10-19T10:09:36.653Z,16.27
2018-10-19T10:10:36.629Z,15.56
2018-10-19T10:11:36.611Z,15.33
2018-10-19T10:12:36.786Z,14.91
2018-10-19T10:13:36.564Z,14.64
2018-10-19T10:14:36.788Z,14.12
2018-10-19T10:15:36.650Z,13.62
2018-10-19T10:16:36.700Z,13.44
2018-10-19T10:17:36.682Z,13.06
2018-10-19T10:18:36.659Z,12.95
2018-10-19T10:21:43.088Z,12.81
2018-10-19T10:22:42.853Z,12.70
2018-10-19T10:23:42.839Z,12.77
2018-10-19T10:24:42.925Z,12.74
2018-10-19T10:25:42.783Z,12.88
2018-10-19T10:26:42.761Z,12.87
2018-10-19T10:27:42.734Z,12.99
2018-10-19T10:28:42.707Z,12.94
2018-10-19T10:29:42.691Z,13.07
2018-10-19T10:30:42.657Z,13.27
2018-10-19T10:31:42.640Z,13.09
2018-10-19T10:32:42.614Z,12.96
2018-10-19T10:33:42.584Z,12.99
2018-10-19T10:34:42.558Z,13.19
2018-10-19T10:35:42.535Z,13.36
2018-10-19T10:36:42.513Z,13.48
2018-10-19T10:37:42.485Z,13.14
2018-10-19T10:38:42.519Z,13.09
2018-10-19T10:39:42.439Z,13.21
2018-10-19T10:40:42.407Z,13.10
2018-10-19T10:41:42.382Z,13.12
2018-10-19T10:42:42.356Z,13.31
2018-10-19T10:43:42.331Z,14.08
2018-10-19T10:44:42.308Z,14.98
2018-10-19T10:45:42.284Z,16.23
2018-10-19T10:46:42.258Z,17.06
2018-10-19T10:47:42.232Z,17.83
2018-10-19T10:48:42.212Z,18.54
2018-10-19T10:49:42.385Z,19.15
2018-10-19T10:56:19.573Z,17.14
2018-10-19T10:57:19.345Z,17.87
2018-10-19T10:58:19.328Z,18.76
2018-10-19T11:02:50.260Z,19.49
2018-10-19T11:07:23.755Z,19.49
2018-10-19T11:08:20.976Z,20.00
2018-10-19T11:09:20.951Z,20.02
2018-10-19T11:10:20.947Z,20.48
2018-10-19T11:11:20.912Z,19.53
2018-10-19T11:12:20.888Z,20.34
2018-10-19T11:13:21.072Z,19.86
2018-10-19T11:14:20.844Z,20.87
2018-10-19T11:15:20.825Z,20.90
2018-10-19T11:16:20.803Z,20.58
2018-10-19T11:17:20.786Z,20.91
2018-10-19T11:18:20.564Z,20.53
2018-10-19T11:19:20.542Z,20.17
2018-10-19T11:20:20.521Z,19.92
2018-10-19T11:21:20.706Z,20.16
2018-10-19T11:22:20.482Z,20.76
2018-10-19T11:23:20.664Z,21.27
2018-10-19T11:24:20.649Z,21.71
2018-10-19T11:25:20.640Z,21.09
2018-10-19T11:27:03.571Z,21.00
2018-10-19T11:28:02.747Z,20.81
2018-10-19T11:29:02.724Z,20.64
2018-10-19T11:30:02.704Z,20.54
2018-10-19T11:31:02.769Z,20.91
2018-10-19T11:32:02.664Z,19.94
2018-10-19T11:33:44.799Z,20.02
2018-10-19T11:34:48.211Z,20.34
2018-10-19T11:36:26.970Z,19.58
2018-10-19T11:37:26.948Z,20.00
2018-10-19T11:38:26.881Z,20.71
2018-10-19T11:39:26.875Z,21.05
2018-10-19T11:40:26.846Z,21.61
2018-10-19T11:42:08.981Z,20.46
2018-10-19T11:43:11.670Z,18.97
2018-10-19T11:44:08.948Z,19.42
2018-10-19T11:45:08.929Z,18.23
2018-10-19T11:46:08.985Z,17.86
2018-10-19T11:47:08.895Z,18.56
2018-10-19T11:48:08.701Z,18.20
2018-10-19T11:49:08.677Z,17.65
2018-10-19T11:50:08.633Z,16.42
2018-10-19T11:51:08.623Z,15.86
2018-10-19T11:52:10.168Z,14.66
2018-10-19T11:53:08.781Z,14.26
2018-10-19T11:54:08.762Z,14.46
2018-10-19T11:55:08.652Z,14.54
2018-10-19T11:56:08.722Z,14.48
2018-10-19T11:57:08.786Z,13.87
2018-10-19T11:58:08.769Z,13.80
2018-10-19T11:59:08.462Z,13.86
2018-10-19T12:00:08.647Z,13.72
2018-10-19T12:01:50.771Z,14.09
2018-10-19T12:03:32.936Z,15.15
2018-10-19T12:04:32.678Z,15.76
2018-10-19T12:05:32.667Z,15.64
2018-10-19T12:06:32.839Z,15.46
2018-10-19T12:07:32.817Z,15.11
2018-10-19T12:08:32.597Z,14.94
2018-10-19T12:09:32.773Z,13.90
2018-10-19T12:10:33.216Z,13.68
2018-10-19T12:11:32.731Z,14.09
2018-10-19T12:12:32.507Z,14.56
2018-10-19T12:14:14.838Z,15.25
2018-10-19T12:16:17.530Z,15.78
2018-10-19T12:17:14.765Z,15.67
2018-10-19T12:19:56.872Z,15.13
2018-10-19T12:23:38.958Z,15.11
2018-10-19T12:24:38.756Z,15.23
2018-10-19T12:25:38.914Z,15.76
2018-10-19T12:26:38.909Z,16.22
2018-10-19T12:27:38.870Z,15.43
2018-10-19T12:28:38.647Z,15.62
2018-10-19T12:29:38.826Z,16.32
2018-10-19T12:30:38.603Z,16.66
2018-10-19T12:31:38.578Z,16.45
2018-10-19T12:32:38.561Z,16.54
2018-10-19T12:33:38.536Z,16.52
2018-10-19T12:34:38.516Z,16.13
2018-10-19T12:35:38.579Z,15.67
2018-10-19T12:36:38.471Z,15.44
2018-10-19T12:37:38.461Z,14.48
2018-10-19T12:38:38.432Z,13.91
2018-10-19T12:41:02.932Z,13.29
2018-10-19T12:42:02.687Z,13.46
2018-10-19T12:43:02.914Z,13.46
2018-10-19T12:44:02.847Z,13.43
2018-10-19T12:45:05.486Z,13.44
2018-10-19T12:46:02.799Z,13.65
2018-10-19T12:50:33.534Z,14.01
2018-10-19T12:51:33.508Z,14.49
2018-10-19T12:52:33.279Z,14.72
2018-10-19T12:53:36.081Z,14.91
2018-10-19T12:55:15.666Z,14.67
2018-10-19T12:56:15.357Z,14.61
2018-10-19T12:57:16.301Z,14.71
2018-10-19T12:58:15.328Z,14.41
2018-10-19T12:59:15.566Z,14.21
2018-10-19T13:00:15.259Z,14.02
2018-10-19T13:01:15.537Z,13.72
2018-10-19T13:02:15.211Z,13.59
2018-10-19T13:03:15.545Z,13.69
2018-10-19T13:04:15.362Z,13.80
2018-10-19T13:05:15.336Z,13.86
2018-10-19T13:06:15.112Z,13.90
2018-10-19T13:07:15.131Z,13.99
2018-10-19T13:08:15.061Z,13.94
2018-10-19T13:09:15.349Z,13.87
2018-10-19T13:10:15.216Z,13.90
2018-10-19T13:11:15.191Z,13.71
2018-10-19T13:12:15.163Z,13.63
2018-10-19T13:13:15.000Z,13.66
2018-10-19T13:14:14.909Z,13.73
2018-10-19T13:15:14.935Z,13.62
2018-10-19T13:16:14.992Z,13.41
2018-10-19T13:17:14.835Z,13.41
2018-10-19T13:18:14.992Z,13.35
2018-10-19T13:19:14.883Z,13.47
2018-10-19T13:20:14.758Z,13.48
2018-10-19T13:21:14.865Z,13.71
2018-10-19T13:22:14.707Z,13.75
2018-10-19T13:23:14.680Z,13.71
2018-10-19T13:24:14.783Z,13.81
2018-10-19T13:25:14.635Z,13.81
2018-10-19T13:26:14.603Z,13.91
2018-10-19T13:27:14.638Z,13.93
2018-10-19T13:28:14.552Z,13.83
2018-10-19T13:29:14.526Z,14.09
2018-10-19T13:30:14.640Z,14.72
2018-10-19T13:31:14.478Z,15.33
2018-10-19T13:32:14.457Z,16.03
2018-10-19T13:33:14.508Z,16.54
2018-10-19T13:34:14.454Z,16.48
2018-10-19T13:35:14.374Z,17.20
2018-10-19T13:36:14.421Z,17.42
2018-10-19T13:37:14.322Z,17.73
2018-10-19T13:38:14.503Z,17.36